createdAt,value
2019-04-13T00:01:06.208Z,98823.00
2019-04-13T00:03:33.344Z,98835.00
2019-04-13T00:06:05.525Z,98837.00
2019-04-13T00:08:34.605Z,98842.00
2019-04-13T00:11:09.445Z,98852.00
2019-04-13T00:13:37.145Z,98854.00
2019-04-13T00:16:04.345Z,98856.00
2019-04-13T00:18:32.826Z,98855.00
2019-04-13T00:20:59.984Z,98844.00
2019-04-13T00:23:27.345Z,98847.00
2019-04-13T00:25:54.685Z,98852.00
2019-04-13T00:28:21.847Z,98851.00
2019-04-13T00:30:48.965Z,98844.00
2019-04-13T00:33:16.245Z,98852.00
2019-04-13T00:35:43.380Z,98840.00
2019-04-13T00:38:10.946Z,98837.00
2019-04-13T00:40:38.085Z,98840.00
2019-04-13T00:43:05.245Z,98833.00
2019-04-13T00:45:32.405Z,98838.00
2019-04-13T00:47:59.644Z,98834.00
2019-04-13T00:50:26.944Z,98836.00
2019-04-13T00:52:55.312Z,98838.00
2019-04-13T00:55:22.646Z,98833.00
2019-04-13T00:57:50.485Z,98840.00
2019-04-13T01:00:17.947Z,98839.00
2019-04-13T01:02:45.284Z,98830.00
2019-04-13T01:05:12.412Z,98834.00
2019-04-13T01:07:39.584Z,98828.00
2019-04-13T01:10:06.729Z,98842.00
2019-04-13T01:12:33.905Z,98839.00
2019-04-13T01:15:05.546Z,98832.00
2019-04-13T01:17:32.925Z,98824.00
2019-04-13T01:20:01.485Z,98827.00
2019-04-13T01:22:29.044Z,98824.00
2019-04-13T01:24:56.285Z,98823.00
2019-04-13T01:27:23.441Z,98825.00
2019-04-13T01:29:50.564Z,98826.00
2019-04-13T01:32:17.747Z,98818.00
2019-04-13T01:34:44.984Z,98825.00
2019-04-13T01:37:12.392Z,98833.00
2019-04-13T01:39:41.024Z,98829.00
2019-04-13T01:42:08.385Z,98831.00
2019-04-13T01:44:36.866Z,98830.00
2019-04-13T01:47:04.246Z,98827.00
2019-04-13T01:49:32.805Z,98831.00
2019-04-13T01:51:59.965Z,98817.00
2019-04-13T01:54:27.105Z,98822.00
2019-04-13T01:56:54.444Z,98814.00
2019-04-13T01:59:23.344Z,98817.00
2019-04-13T02:02:10.565Z,98821.00
2019-04-13T02:04:39.905Z,98819.00
2019-04-13T02:07:09.285Z,98824.00
2019-04-13T02:09:41.124Z,98820.00
2019-04-13T02:12:08.364Z,98811.00
2019-04-13T02:14:35.644Z,98809.00
2019-04-13T02:17:02.965Z,98815.00
2019-04-13T02:19:30.129Z,98810.00
2019-04-13T02:21:57.369Z,98818.00
2019-04-13T02:24:24.504Z,98809.00
2019-04-13T02:26:52.145Z,98812.00
2019-04-13T02:29:21.130Z,98807.00
2019-04-13T02:31:48.326Z,98804.00
2019-04-13T02:34:16.874Z,98810.00
2019-04-13T02:36:44.066Z,98808.00
2019-04-13T02:39:11.304Z,98808.00
2019-04-13T02:41:38.566Z,98815.00
2019-04-13T02:44:07.265Z,98812.00
2019-04-13T02:46:34.388Z,98803.00
2019-04-13T02:49:01.647Z,98817.00
2019-04-13T02:51:28.785Z,98814.00
2019-04-13T02:53:55.945Z,98821.00
2019-04-13T02:56:23.705Z,98806.00
2019-04-13T02:58:51.005Z,98798.00
2019-04-13T03:01:18.345Z,98808.00
2019-04-13T03:03:45.564Z,98806.00
2019-04-13T03:06:13.165Z,98806.00
2019-04-13T03:08:40.285Z,98809.00
2019-04-13T03:11:07.432Z,98802.00
2019-04-13T03:13:34.587Z,98803.00
2019-04-13T03:16:03.705Z,98810.00
2019-04-13T03:18:32.845Z,98806.00
2019-04-13T03:21:00.124Z,98798.00
2019-04-13T03:23:28.905Z,98802.00
2019-04-13T03:25:55.985Z,98794.00
2019-04-13T03:28:23.065Z,98798.00
2019-04-13T03:30:50.470Z,98788.00
2019-04-13T03:33:19.327Z,98784.00
2019-04-13T03:35:58.531Z,98787.00
2019-04-13T03:38:16.647Z,98781.00
2019-04-13T03:40:43.744Z,98796.00
2019-04-13T03:43:10.985Z,98777.00
2019-04-13T03:45:38.145Z,98776.00
2019-04-13T03:48:06.426Z,98784.00
2019-04-13T03:50:33.664Z,98780.00
2019-04-13T03:53:01.024Z,98775.00
2019-04-13T03:55:28.164Z,98774.00
2019-04-13T03:57:55.905Z,98777.00
2019-04-13T04:00:23.244Z,98773.00
2019-04-13T04:02:50.425Z,98772.00
2019-04-13T04:05:17.525Z,98767.00
2019-04-13T04:07:44.624Z,98781.00
2019-04-13T04:10:11.794Z,98771.00
2019-04-13T04:12:39.129Z,98766.00
2019-04-13T04:15:08.585Z,98761.00
2019-04-13T04:17:35.685Z,98767.00
2019-04-13T04:20:04.889Z,98756.00
2019-04-13T04:22:32.125Z,98763.00
2019-04-13T04:24:59.284Z,98762.00
2019-04-13T04:27:26.424Z,98760.00
2019-04-13T04:29:55.005Z,98761.00
2019-04-13T04:32:22.125Z,98757.00
2019-04-13T04:34:50.945Z,98766.00
2019-04-13T04:37:18.128Z,98766.00
2019-04-13T04:39:45.244Z,98766.00
2019-04-13T04:42:12.387Z,98769.00
2019-04-13T04:44:39.751Z,98779.00
2019-04-13T04:47:06.904Z,98766.00
2019-04-13T04:49:34.145Z,98766.00
2019-04-13T04:52:01.289Z,98771.00
2019-04-13T04:54:28.645Z,98771.00
2019-04-13T04:56:56.851Z,98774.00
2019-04-13T04:59:24.065Z,98774.00
2019-04-13T05:01:51.866Z,98780.00
2019-04-13T05:04:19.105Z,98774.00
2019-04-13T05:06:46.348Z,98772.00
2019-04-13T05:09:13.627Z,98776.00
2019-04-13T05:11:41.164Z,98773.00
2019-04-13T05:14:08.405Z,98781.00
2019-04-13T05:16:35.544Z,98777.00
2019-04-13T05:19:02.725Z,98772.00
2019-04-13T05:21:29.844Z,98762.00
2019-04-13T05:23:56.927Z,98777.00
2019-04-13T05:26:24.064Z,98762.00
2019-04-13T05:28:51.165Z,98775.00
2019-04-13T05:31:18.466Z,98777.00
2019-04-13T05:33:45.625Z,98781.00
2019-04-13T05:36:12.665Z,98776.00
2019-04-13T05:38:39.785Z,98784.00
2019-04-13T05:41:06.847Z,98779.00
2019-04-13T05:43:34.039Z,98780.00
2019-04-13T05:46:01.119Z,98781.00
2019-04-13T05:48:28.279Z,98778.00
2019-04-13T05:50:55.727Z,98777.00
2019-04-13T05:53:22.881Z,98781.00
2019-04-13T05:55:50.048Z,98786.00
2019-04-13T05:58:17.569Z,98784.00
2019-04-13T06:00:45.068Z,98785.00
2019-04-13T06:03:12.168Z,98788.00
2019-04-13T06:05:39.315Z,98785.00
2019-04-13T06:08:06.496Z,98778.00
2019-04-13T06:10:33.647Z,98782.00
2019-04-13T06:13:00.826Z,98781.00
2019-04-13T06:15:27.965Z,98784.00
2019-04-13T06:17:55.185Z,98782.00
2019-04-13T06:20:22.273Z,98786.00
2019-04-13T06:22:52.110Z,98782.00
2019-04-13T06:25:28.822Z,98783.00
2019-04-13T06:27:50.695Z,98781.00
2019-04-13T06:30:36.286Z,98785.00
2019-04-13T06:33:13.851Z,98791.00
2019-04-13T06:35:41.236Z,98783.00
2019-04-13T06:38:08.252Z,98780.00
2019-04-13T06:40:35.366Z,98786.00
2019-04-13T06:43:02.532Z,98782.00
2019-04-13T06:45:29.972Z,98783.00
2019-04-13T06:48:00.178Z,98777.00
2019-04-13T06:50:26.147Z,98787.00
2019-04-13T06:52:53.366Z,98784.00
2019-04-13T06:55:20.948Z,98781.00
2019-04-13T06:57:48.568Z,98786.00
2019-04-13T07:00:16.462Z,98776.00
2019-04-13T07:02:43.830Z,98774.00
2019-04-13T07:05:11.189Z,98780.00
2019-04-13T07:07:53.407Z,98777.00
2019-04-13T07:10:31.024Z,98781.00
2019-04-13T07:12:59.367Z,98773.00
2019-04-13T07:15:31.639Z,98776.00
2019-04-13T07:17:58.727Z,98776.00
2019-04-13T07:20:25.787Z,98782.00
2019-04-13T07:22:54.195Z,98778.00
2019-04-13T07:25:21.768Z,98775.00
2019-04-13T07:27:48.828Z,98781.00
2019-04-13T07:30:16.054Z,98764.00
2019-04-13T07:32:44.407Z,98781.00
2019-04-13T07:35:11.848Z,98781.00
2019-04-13T07:37:38.990Z,98780.00
2019-04-13T07:40:06.349Z,98780.00
2019-04-13T07:42:33.588Z,98782.00
2019-04-13T07:45:02.472Z,98784.00
2019-04-13T07:47:32.588Z,98780.00
2019-04-13T07:50:01.465Z,98782.00
2019-04-13T07:52:30.361Z,98786.00
2019-04-13T07:54:57.559Z,98780.00
2019-04-13T07:57:25.073Z,98782.00
2019-04-13T07:59:52.133Z,98782.00
2019-04-13T08:02:19.334Z,98785.00
2019-04-13T08:04:46.673Z,98780.00
2019-04-13T08:07:13.857Z,98779.00
2019-04-13T08:09:41.034Z,98792.00
2019-04-13T08:12:08.154Z,98785.00
2019-04-13T08:14:35.295Z,98792.00
2019-04-13T08:17:06.523Z,98778.00
2019-04-13T08:19:41.296Z,98783.00
2019-04-13T08:22:08.460Z,98784.00
2019-04-13T08:24:35.898Z,98785.00
2019-04-13T08:27:03.257Z,98785.00
2019-04-13T08:29:30.453Z,98784.00
2019-04-13T08:32:01.690Z,98775.00
2019-04-13T08:34:28.936Z,98784.00
2019-04-13T08:36:58.013Z,98772.00
2019-04-13T08:39:26.974Z,98770.00
2019-04-13T08:41:54.476Z,98775.00
2019-04-13T08:44:21.620Z,98769.00
2019-04-13T08:46:50.197Z,98769.00
2019-04-13T08:49:17.574Z,98767.00
2019-04-13T08:51:44.897Z,98758.00
2019-04-13T08:54:13.374Z,98763.00
2019-04-13T08:56:41.749Z,98764.00
2019-04-13T08:59:09.752Z,98757.00
2019-04-13T09:01:38.620Z,98770.00
2019-04-13T09:04:05.777Z,98768.00
2019-04-13T09:06:33.334Z,98769.00
2019-04-13T09:09:02.784Z,98771.00
2019-04-13T09:11:31.030Z,98770.00
2019-04-13T09:13:58.520Z,98757.00
2019-04-13T09:16:28.857Z,98757.00
2019-04-13T09:19:13.652Z,98757.00
2019-04-13T09:21:42.013Z,98764.00
2019-04-13T09:24:09.894Z,98752.00
2019-04-13T09:26:37.238Z,98751.00
2019-04-13T09:29:04.954Z,98744.00
2019-04-13T09:31:32.174Z,98751.00
2019-04-13T09:33:59.334Z,98738.00
2019-04-13T09:36:28.711Z,98746.00
2019-04-13T09:38:55.634Z,98742.00
2019-04-13T09:41:22.893Z,98735.00
2019-04-13T09:43:57.705Z,98738.00
2019-04-13T09:46:24.373Z,98735.00
2019-04-13T09:48:51.753Z,98732.00
2019-04-13T09:51:19.293Z,98731.00
2019-04-13T09:53:48.572Z,98739.00
2019-04-13T09:56:16.854Z,98730.00
2019-04-13T09:58:43.934Z,98732.00
2019-04-13T10:01:11.114Z,98732.00
2019-04-13T10:03:39.428Z,98731.00
2019-04-13T10:06:07.178Z,98725.00
2019-04-13T10:08:34.316Z,98723.00
2019-04-13T10:11:01.395Z,98720.00
2019-04-13T10:13:36.114Z,98717.00
2019-04-13T10:16:21.193Z,98717.00
2019-04-13T10:18:50.274Z,98711.00
2019-04-13T10:21:17.415Z,98715.00
2019-04-13T10:23:44.515Z,98711.00
2019-04-13T10:26:15.690Z,98716.00
2019-04-13T10:28:41.834Z,98708.00
2019-04-13T10:31:10.418Z,98692.00
2019-04-13T10:33:37.574Z,98704.00
2019-04-13T10:36:04.833Z,98703.00
2019-04-13T10:38:32.054Z,98699.00
2019-04-13T10:41:00.553Z,98693.00
2019-04-13T10:43:28.057Z,98691.00
2019-04-13T10:46:10.912Z,98689.00
2019-04-13T10:48:40.022Z,98689.00
2019-04-13T10:51:09.039Z,98692.00
2019-04-13T10:53:36.158Z,98676.00
2019-04-13T10:56:03.297Z,98673.00
2019-04-13T10:58:30.337Z,98676.00
2019-04-13T11:00:57.538Z,98674.00
2019-04-13T11:03:24.718Z,98662.00
2019-04-13T11:05:51.798Z,98666.00
2019-04-13T11:08:20.202Z,98661.00
2019-04-13T11:10:48.018Z,98655.00
2019-04-13T11:13:15.137Z,98649.00
2019-04-13T11:15:44.328Z,98653.00
2019-04-13T11:18:11.459Z,98651.00
2019-04-13T11:20:38.638Z,98647.00
2019-04-13T11:23:05.877Z,98648.00
2019-04-13T11:25:33.097Z,98644.00
2019-04-13T11:28:02.273Z,98643.00
2019-04-13T11:30:31.197Z,98644.00
2019-04-13T11:32:59.358Z,98638.00
2019-04-13T11:35:26.457Z,98634.00
2019-04-13T11:37:53.558Z,98631.00
2019-04-13T11:40:20.958Z,98631.00
2019-04-13T11:42:53.839Z,98633.00
2019-04-13T11:45:25.720Z,98626.00
2019-04-13T11:47:54.617Z,98624.00
2019-04-13T11:50:23.518Z,98617.00
2019-04-13T11:52:50.777Z,98610.00
2019-04-13T11:55:17.901Z,98624.00
2019-04-13T11:57:47.253Z,98622.00
2019-04-13T12:00:33.659Z,98614.00
2019-04-13T12:03:19.117Z,98612.00
2019-04-13T12:05:48.297Z,98607.00
2019-04-13T12:08:17.177Z,98611.00
2019-04-13T12:10:58.256Z,98612.00
2019-04-13T12:13:43.837Z,98612.00
2019-04-13T12:16:28.236Z,98617.00
2019-04-13T12:18:57.296Z,98616.00
2019-04-13T12:21:26.376Z,98614.00
2019-04-13T12:23:55.376Z,98610.00
2019-04-13T12:26:22.795Z,98608.00
2019-04-13T12:28:52.121Z,98608.00
2019-04-13T12:31:22.206Z,98607.00
2019-04-13T12:33:49.295Z,98607.00
2019-04-13T12:36:16.535Z,98611.00
2019-04-13T12:38:50.017Z,98614.00
2019-04-13T12:41:22.294Z,98613.00
2019-04-13T12:43:49.873Z,98610.00
2019-04-13T12:46:17.016Z,98610.00
2019-04-13T12:48:45.695Z,98617.00
2019-04-13T12:51:13.155Z,98609.00
2019-04-13T12:53:41.335Z,98607.00
2019-04-13T12:56:08.715Z,98602.00
2019-04-13T12:58:35.835Z,98602.00
2019-04-13T13:01:12.453Z,98602.00
2019-04-13T13:03:41.416Z,98600.00
2019-04-13T13:06:08.167Z,98603.00
2019-04-13T13:08:36.900Z,98594.00
2019-04-13T13:11:06.115Z,98597.00
2019-04-13T13:13:33.474Z,98601.00
2019-04-13T13:16:00.994Z,98585.00
2019-04-13T13:18:28.574Z,98593.00
2019-04-13T13:20:58.027Z,98592.00
2019-04-13T13:23:25.354Z,98591.00
2019-04-13T13:25:52.874Z,98585.00
2019-04-13T13:28:20.034Z,98583.00
2019-04-13T13:30:48.351Z,98583.00
2019-04-13T13:33:17.864Z,98586.00
2019-04-13T13:35:45.075Z,98583.00
2019-04-13T13:38:12.173Z,98589.00
2019-04-13T13:40:39.359Z,98584.00
2019-04-13T13:43:06.576Z,98584.00
2019-04-13T13:45:33.922Z,98578.00
2019-04-13T13:48:02.051Z,98581.00
2019-04-13T13:50:29.676Z,98579.00
2019-04-13T13:52:58.036Z,98577.00
2019-04-13T13:55:25.139Z,98568.00
2019-04-13T13:57:54.116Z,98570.00
2019-04-13T14:00:23.177Z,98574.00
2019-04-13T14:02:51.496Z,98567.00
2019-04-13T14:05:18.895Z,98570.00
2019-04-13T14:07:47.541Z,98571.00
2019-04-13T14:10:14.926Z,98572.00
2019-04-13T14:12:42.727Z,98563.00
2019-04-13T14:15:14.423Z,98564.00
2019-04-13T14:17:41.660Z,98565.00
2019-04-13T14:20:12.566Z,98557.00
2019-04-13T14:22:39.587Z,98553.00
2019-04-13T14:25:06.834Z,98557.00
2019-04-13T14:27:33.878Z,98556.00
2019-04-13T14:30:07.880Z,98558.00
2019-04-13T14:32:35.910Z,98554.00
2019-04-13T14:35:05.860Z,98556.00
2019-04-13T14:37:33.308Z,98555.00
2019-04-13T14:40:00.552Z,98552.00
2019-04-13T14:42:27.757Z,98549.00
2019-04-13T14:44:55.585Z,98551.00
2019-04-13T14:49:52.932Z,98551.00
2019-04-13T14:52:20.154Z,98545.00
2019-04-13T14:54:49.944Z,98555.00
2019-04-13T14:57:17.975Z,98560.00
2019-04-13T14:59:49.306Z,98559.00
2019-04-13T15:02:15.565Z,98559.00
2019-04-13T15:04:43.285Z,98559.00
2019-04-13T15:07:11.606Z,98559.00
2019-04-13T15:09:38.905Z,98559.00
2019-04-13T15:12:09.311Z,98558.00
2019-04-13T15:14:36.767Z,98564.00
2019-04-13T15:17:06.421Z,98560.00
2019-04-13T15:19:41.475Z,98555.00
2019-04-13T15:22:03.591Z,98554.00
2019-04-13T15:24:32.810Z,98549.00
2019-04-13T15:27:00.814Z,98559.00
2019-04-13T15:29:31.505Z,98559.00
2019-04-13T15:31:57.403Z,98560.00
2019-04-13T15:34:29.060Z,98565.00
2019-04-13T15:36:58.378Z,98560.00
2019-04-13T15:39:24.689Z,98559.00
2019-04-13T15:42:02.138Z,98562.00
2019-04-13T15:44:22.044Z,98562.00
2019-04-13T15:46:51.526Z,98558.00
2019-04-13T15:49:19.739Z,98557.00
2019-04-13T15:51:47.725Z,98554.00
2019-04-13T15:54:15.017Z,98558.00
2019-04-13T15:56:44.284Z,98551.00
2019-04-13T15:59:13.022Z,98562.00
2019-04-13T16:01:40.932Z,98559.00
2019-04-13T16:04:08.066Z,98563.00
2019-04-13T16:06:35.855Z,98563.00
2019-04-13T16:09:13.954Z,98561.00
2019-04-13T16:11:53.765Z,98562.00
2019-04-13T16:14:15.896Z,98558.00
2019-04-13T16:16:43.650Z,98559.00
2019-04-13T16:19:13.482Z,98573.00
2019-04-13T16:21:41.103Z,98562.00
2019-04-13T16:24:09.233Z,98563.00
2019-04-13T16:26:36.409Z,98564.00
2019-04-13T16:29:20.743Z,98566.00
2019-04-13T16:31:50.766Z,98561.00
2019-04-13T16:34:38.686Z,98565.00
2019-04-13T16:37:17.038Z,98554.00
2019-04-13T16:39:45.523Z,98563.00
2019-04-13T16:42:20.192Z,98566.00
2019-04-13T16:44:47.026Z,98572.00
2019-04-13T16:47:22.298Z,98567.00
2019-04-13T16:49:51.359Z,98568.00
2019-04-13T16:52:36.638Z,98569.00
2019-04-13T16:55:09.055Z,98567.00
2019-04-13T16:57:40.321Z,98570.00
2019-04-13T17:00:22.265Z,98570.00
2019-04-13T17:03:09.706Z,98581.00
2019-04-13T17:05:39.762Z,98567.00
2019-04-13T17:08:07.694Z,98559.00
2019-04-13T17:10:36.204Z,98563.00
2019-04-13T17:13:03.664Z,98556.00
2019-04-13T17:15:31.251Z,98557.00
2019-04-13T17:17:59.418Z,98564.00
2019-04-13T17:23:25.250Z,98564.00
2019-04-13T17:25:54.305Z,98563.00
2019-04-13T17:28:41.567Z,98573.00
2019-04-13T17:31:14.149Z,98564.00
2019-04-13T17:33:44.075Z,98569.00
2019-04-13T17:36:12.639Z,98577.00
2019-04-13T17:38:39.965Z,98583.00
2019-04-13T17:41:12.953Z,98586.00
2019-04-13T17:43:57.346Z,98579.00
2019-04-13T17:46:47.506Z,98584.00
2019-04-13T17:49:25.702Z,98595.00
2019-04-13T17:51:58.375Z,98592.00
2019-04-13T17:54:33.405Z,98599.00
2019-04-13T17:57:01.255Z,98594.00
2019-04-13T17:59:30.604Z,98600.00
2019-04-13T18:02:02.663Z,98599.00
2019-04-13T18:04:31.568Z,98599.00
2019-04-13T18:07:05.212Z,98601.00
2019-04-13T18:09:37.187Z,98613.00
2019-04-13T18:12:06.234Z,98612.00
2019-04-13T18:14:47.197Z,98603.00
2019-04-13T18:17:28.115Z,98615.00
2019-04-13T18:19:55.181Z,98619.00
2019-04-13T18:22:23.024Z,98617.00
2019-04-13T18:24:51.261Z,98621.00
2019-04-13T18:27:19.502Z,98624.00
2019-04-13T18:29:57.178Z,98624.00
2019-04-13T18:32:15.650Z,98634.00
2019-04-13T18:34:43.896Z,98632.00
2019-04-13T18:37:11.613Z,98630.00
2019-04-13T18:39:39.036Z,98634.00
2019-04-13T18:42:07.568Z,98634.00
2019-04-13T18:44:34.850Z,98633.00
2019-04-13T18:47:02.342Z,98632.00
2019-04-13T18:49:30.536Z,98632.00
2019-04-13T18:51:58.542Z,98635.00
2019-04-13T18:54:25.927Z,98637.00
2019-04-13T18:56:53.009Z,98642.00
2019-04-13T18:59:20.142Z,98642.00
2019-04-13T19:01:47.392Z,98635.00
2019-04-13T19:04:14.501Z,98640.00
2019-04-13T19:06:41.740Z,98640.00
2019-04-13T19:09:10.667Z,98638.00
2019-04-13T19:11:37.727Z,98631.00
2019-04-13T19:14:04.867Z,98635.00
2019-04-13T19:16:33.368Z,98638.00
2019-04-13T19:19:00.767Z,98629.00
2019-04-13T19:21:28.284Z,98643.00
2019-04-13T19:23:55.510Z,98639.00
2019-04-13T19:26:22.727Z,98635.00
2019-04-13T19:28:49.828Z,98642.00
2019-04-13T19:31:16.927Z,98644.00
2019-04-13T19:33:44.287Z,98632.00
2019-04-13T19:36:12.867Z,98635.00
2019-04-13T19:38:40.348Z,98633.00
2019-04-13T19:41:07.579Z,98634.00
2019-04-13T19:43:34.872Z,98640.00
2019-04-13T19:46:02.169Z,98637.00
2019-04-13T19:48:29.447Z,98641.00
2019-04-13T19:50:57.807Z,98633.00
2019-04-13T19:53:42.048Z,98627.00
2019-04-13T19:56:14.288Z,98623.00
2019-04-13T19:58:43.547Z,98630.00
2019-04-13T20:01:12.529Z,98629.00
2019-04-13T20:03:39.608Z,98627.00
2019-04-13T20:06:18.254Z,98623.00
2019-04-13T20:08:36.862Z,98621.00
2019-04-13T20:11:04.072Z,98615.00
2019-04-13T20:13:41.516Z,98628.00
2019-04-13T20:16:01.659Z,98619.00
2019-04-13T20:18:29.048Z,98621.00
2019-04-13T20:20:56.447Z,98621.00
2019-04-13T20:23:23.768Z,98621.00
2019-04-13T20:25:50.941Z,98629.00
2019-04-13T20:28:18.435Z,98632.00
2019-04-13T20:30:45.721Z,98627.00
2019-04-13T20:33:13.251Z,98624.00
2019-04-13T20:35:51.471Z,98621.00
2019-04-13T20:38:10.908Z,98632.00
2019-04-13T20:40:42.435Z,98629.00
2019-04-13T20:43:09.710Z,98629.00
2019-04-13T20:45:36.875Z,98639.00
2019-04-13T20:48:04.532Z,98642.00
2019-04-13T20:50:34.116Z,98636.00
2019-04-13T20:53:01.515Z,98636.00
2019-04-13T20:55:28.697Z,98636.00
2019-04-13T20:57:56.651Z,98641.00
2019-04-13T21:00:24.692Z,98638.00
2019-04-13T21:02:52.610Z,98645.00
2019-04-13T21:05:20.980Z,98647.00
2019-04-13T21:07:48.814Z,98648.00
2019-04-13T21:10:16.459Z,98650.00
2019-04-13T21:12:43.779Z,98648.00
2019-04-13T21:15:11.789Z,98655.00
2019-04-13T21:17:39.739Z,98646.00
2019-04-13T21:20:07.735Z,98653.00
2019-04-13T21:22:35.683Z,98659.00
2019-04-13T21:25:05.622Z,98657.00
2019-04-13T21:27:33.571Z,98656.00
2019-04-13T21:30:01.200Z,98657.00
2019-04-13T21:32:29.720Z,98661.00
2019-04-13T21:34:57.199Z,98651.00
2019-04-13T21:37:24.853Z,98662.00
2019-04-13T21:39:52.736Z,98662.00
2019-04-13T21:42:21.138Z,98660.00
2019-04-13T21:44:50.995Z,98651.00
2019-04-13T21:47:18.780Z,98657.00
2019-04-13T21:49:46.937Z,98656.00
2019-04-13T21:52:23.943Z,98662.00
2019-04-13T21:54:51.813Z,98665.00
2019-04-13T21:57:19.848Z,98667.00
2019-04-13T21:59:47.678Z,98670.00
2019-04-13T22:02:17.855Z,98665.00
2019-04-13T22:04:48.556Z,98669.00
2019-04-13T22:07:17.947Z,98673.00
2019-04-13T22:09:45.730Z,98673.00
2019-04-13T22:12:13.304Z,98681.00
2019-04-13T22:14:48.152Z,98677.00
2019-04-13T22:17:09.999Z,98676.00
2019-04-13T22:19:37.584Z,98682.00
2019-04-13T22:22:05.596Z,98687.00
2019-04-13T22:24:33.169Z,98681.00
2019-04-13T22:27:00.959Z,98676.00
2019-04-13T22:29:31.278Z,98683.00
2019-04-13T22:32:16.839Z,98674.00
2019-04-13T22:34:55.146Z,98682.00
2019-04-13T22:37:20.989Z,98680.00
2019-04-13T22:39:48.876Z,98682.00
2019-04-13T22:42:16.596Z,98677.00
2019-04-13T22:44:51.062Z,98678.00
2019-04-13T22:47:14.639Z,98676.00
2019-04-13T22:49:58.519Z,98689.00
2019-04-13T22:52:34.559Z,98685.00
2019-04-13T22:55:16.508Z,98680.00
2019-04-13T22:57:45.780Z,98685.00
2019-04-13T23:00:34.371Z,98691.00
2019-04-13T23:03:02.578Z,98678.00
2019-04-13T23:05:37.163Z,98679.00
2019-04-13T23:08:05.276Z,98678.00
2019-04-13T23:10:33.306Z,98675.00
2019-04-13T23:13:01.495Z,98681.00
2019-04-13T23:15:34.429Z,98681.00
2019-04-13T23:17:59.539Z,98676.00
2019-04-13T23:20:27.783Z,98679.00
2019-04-13T23:22:56.212Z,98679.00
2019-04-13T23:25:24.979Z,98678.00
2019-04-13T23:27:52.747Z,98673.00
2019-04-13T23:30:20.492Z,98674.00
2019-04-13T23:32:49.300Z,98664.00
2019-04-13T23:35:17.005Z,98681.00
2019-04-13T23:37:45.291Z,98677.00
2019-04-13T23:40:13.694Z,98670.00
2019-04-13T23:42:42.079Z,98683.00
2019-04-13T23:45:19.426Z,98673.00
2019-04-13T23:47:40.519Z,98669.00
2019-04-13T23:50:09.006Z,98660.00
2019-04-13T23:52:36.875Z,98662.00
2019-04-13T23:55:05.403Z,98663.00
2019-04-13T23:57:44.336Z,98657.00
